Архив погоды в Барабинске

Метеограмма Барабинск
Понедельник, 17 Июня
Время местн. Темп Ветер Видим Явления Облачность нижн/средн/верх Атм. давл. Влжн Точка росы ВНГО R Сост. почвы Tg s
Напр Скр Прв ур.ст ур.м изм
07:00 +11.6° Ю 2 - 20 км - облачно с прояснениями 745 756 +0.1 79% +8.1° - 0 Влажная (без луж) - -
04:00 +9.7° Ю 2 - 20 км - переменная облачность 745 756 +0.1 80% +6.5° - - - - -
01:00 +10.4° Ю,Ю-З 2 - 20 км - переменная облачность 745 756 +0.5 70% +5.2° 1 км - - - -
Воскресенье, 16 Июня
Время местн. Темп Ветер Видим Явления Облачность нижн/средн/верх Атм. давл. Влжн Точка росы ВНГО R Сост. почвы Tg s
Напр Скр Прв ур.ст ур.м изм
22:00 +12.9° Ю-З 2 - 20 км - облачно с прояснениями 745 755 +1 59% +5.2° - - - - -
19:00 +14° С,С-З 2 - 20 км - облачно 744 754 +1.1 51% +4° 1 км 0 - - -
16:00 +13.8° С-З 5 10 20 км - облачно 743 753 -0.2 44% +1.7° 1 км - - - -
13:00 +13.3° С 3 - 20 км - облачно 743 753 +0.1 55% +4.4° 1 км - - - -
10:00 +13° С 4 - 20 км - преимущественно облачно 743 753 -0.9 54% +3.9° - - - - -
07:00 +7.9° С 1 - 20 км - облачно с прояснениями 744 754 -0.7 93% +6.9° - 0 Влажная (без луж) - -
04:00 +6.2° С 1 - 20 км - облачно с прояснениями 744 755 -1 93% +5.1° - - - - -
01:00 +7.6° С 1 - 20 км - переменная облачность 745 756 -0.6 89% +5.9° 1 км - - - -
Суббота, 15 Июня
Время местн. Темп Ветер Видим Явления Облачность нижн/средн/верх Атм. давл. Влжн Точка росы ВНГО R Сост. почвы Tg s
Напр Скр Прв ур.ст ур.м изм
22:00 +11.3° С 1 - 20 км - облачно с прояснениями 746 757 -0.4 67% +5.3° 1 км - - - -
19:00 +14.3° С 2 - 20 км - преимущественно облачно 746 757 -0.5 47% +3.1° 1 км 0 - - -
16:00 +14° З 1 - 20 км - преимущественно облачно 747 757 -0.5 44% +1.9° 1 км - - - -
13:00 +12.8° З 2 - 20 км - преимущественно облачно 747 758 +0.7 47% +1.9° 1 км - - - -
10:00 +12.8° С 1 - 20 км - переменная облачность 747 757 +0.2 47% +1.8° 1 км - - - -
07:00 +8.9° штиль 0 - 20 км - преимущественно облачно 746 757 +0.5 87% +6.9° - 0 Влажная (без луж) - -
04:00 +5.1° штиль 0 - 20 км - переменная облачность 746 757 +0.3 85% +2.8° - - - - -
01:00 +9.9° З,С-З 2 - 20 км - преимущественно облачно 746 756 +0.6 69% +4.5° - - - - -
Пятница, 14 Июня
Время местн. Темп Ветер Видим Явления Облачность нижн/средн/верх Атм. давл. Влжн Точка росы ВНГО R Сост. почвы Tg s
Напр Скр Прв ур.ст ур.м изм
22:00 +11.7° З,С-З 1 - 20 км - преимущественно облачно 745 756 +0.5 60% +4.3° 1 км - - - -
19:00 +13.9° З,С-З 3 - 20 км - преимущественно облачно 745 755 -0.1 50% +3.6° 1 км 0 - - -
16:00 +14.3° З 3 - 20 км - облачно с прояснениями 745 755 +0.2 45% +2.4° 1 км - - - -
13:00 +14.4° З 4 - 20 км - облачно с прояснениями 744 755 +0.2 48% +3.5° 1 км - - - -
10:00 +12.5° З 3 - 20 км - облачно с прояснениями 744 755 +0.8 64% +5.8° 1 км - - - -
07:00 +9.6° З,С-З 2 - 20 км - переменная облачность 743 754 +1.8 83% +6.8° - 0.1 Влажная (без луж) - -
04:00 +9.9° З,С-З 2 - 20 км - переменная облачность 742 752 +0.6 86% +7.6° более 2.5 км - - - -